createdAt,value
2022-10-13T00:01:16.622Z,14.10
2022-10-13T00:03:47.470Z,14.10
2022-10-13T00:06:24.261Z,14.23
2022-10-13T00:08:51.460Z,13.38
2022-10-13T00:11:26.272Z,14.10
2022-10-13T00:13:58.023Z,13.95
2022-10-13T00:16:26.622Z,14.73
2022-10-13T00:18:53.912Z,14.65
2022-10-13T00:21:25.024Z,13.65
2022-10-13T00:23:54.269Z,13.90
2022-10-13T00:26:23.693Z,14.05
2022-10-13T00:28:52.922Z,14.48
2022-10-13T00:31:33.706Z,14.13
2022-10-13T00:34:02.417Z,14.48
2022-10-13T00:36:29.976Z,14.30
2022-10-13T00:38:58.357Z,14.48
2022-10-13T00:41:25.980Z,14.23
2022-10-13T00:44:06.588Z,14.02
2022-10-13T00:46:37.142Z,14.23
2022-10-13T00:49:14.330Z,14.20
2022-10-13T00:51:49.151Z,14.35
2022-10-13T00:54:21.675Z,13.90
2022-10-13T00:56:50.859Z,14.70
2022-10-13T00:59:27.451Z,15.32
2022-10-13T01:01:55.710Z,14.15
2022-10-13T01:04:27.101Z,14.05
2022-10-13T01:06:56.571Z,13.82
2022-10-13T01:09:23.503Z,14.73
2022-10-13T01:12:20.917Z,14.13
2022-10-13T01:15:28.514Z,14.02
2022-10-13T01:18:05.843Z,14.88
2022-10-13T01:20:50.752Z,14.23
2022-10-13T01:23:38.520Z,15.40
2022-10-13T01:26:56.168Z,14.43
2022-10-13T01:30:00.062Z,14.50
2022-10-13T01:32:57.501Z,14.07
2022-10-13T01:35:49.989Z,14.38
2022-10-13T01:38:37.737Z,14.95
2022-10-13T01:41:27.723Z,14.30
2022-10-13T01:44:21.548Z,15.07
2022-10-13T01:46:54.032Z,14.63
2022-10-13T01:49:27.533Z,14.80
2022-10-13T01:52:00.816Z,14.15
2022-10-13T01:54:27.743Z,14.30
2022-10-13T01:56:57.009Z,14.95
2022-10-13T01:59:28.718Z,14.65
2022-10-13T02:02:07.829Z,15.30
2022-10-13T02:04:45.300Z,15.50
2022-10-13T02:07:32.269Z,14.90
2022-10-13T02:10:23.877Z,15.05
2022-10-13T02:13:13.281Z,14.70
2022-10-13T02:15:47.973Z,15.25
2022-10-13T02:18:19.037Z,15.65
2022-10-13T02:20:46.496Z,15.68
2022-10-13T02:23:18.461Z,15.35
2022-10-13T02:25:47.611Z,15.90
2022-10-13T02:28:16.066Z,15.20
2022-10-13T02:30:45.337Z,15.07
2022-10-13T02:33:14.338Z,15.82
2022-10-13T02:35:42.421Z,15.90
2022-10-13T02:38:10.547Z,15.70
2022-10-13T02:40:37.973Z,15.07
2022-10-13T02:43:05.008Z,15.50
2022-10-13T02:45:31.941Z,16.20
2022-10-13T02:47:59.086Z,15.48
2022-10-13T02:50:26.238Z,15.90
2022-10-13T02:52:53.995Z,16.17
2022-10-13T02:55:21.167Z,16.98
2022-10-13T02:57:56.650Z,16.50
2022-10-13T03:00:25.187Z,16.58
2022-10-13T03:02:52.289Z,16.15
2022-10-13T03:05:19.328Z,16.23
2022-10-13T03:07:46.257Z,15.50
2022-10-13T03:10:13.169Z,16.80
2022-10-13T03:12:40.088Z,16.48
2022-10-13T03:15:08.090Z,16.20
2022-10-13T03:17:35.071Z,16.13
2022-10-13T03:20:02.023Z,15.48
2022-10-13T03:22:32.830Z,16.23
2022-10-13T03:25:00.430Z,16.00
2022-10-13T03:27:27.803Z,16.08
2022-10-13T03:29:54.799Z,16.42
2022-10-13T03:32:22.269Z,16.88
2022-10-13T03:34:50.496Z,17.13
2022-10-13T03:37:17.991Z,16.15
2022-10-13T03:39:45.015Z,16.92
2022-10-13T03:42:12.925Z,17.17
2022-10-13T03:44:39.877Z,17.05
2022-10-13T03:47:06.906Z,17.48
2022-10-13T03:49:33.817Z,17.55
2022-10-13T03:52:00.781Z,17.25
2022-10-13T03:54:27.763Z,17.52
2022-10-13T03:56:54.788Z,16.80
2022-10-13T03:59:21.847Z,17.52
2022-10-13T04:01:48.925Z,17.33
2022-10-13T04:04:16.360Z,18.20
2022-10-13T04:06:43.567Z,18.23
2022-10-13T04:09:10.717Z,17.83
2022-10-13T04:11:37.719Z,17.58
2022-10-13T04:14:04.889Z,17.65
2022-10-13T04:16:32.381Z,17.77
2022-10-13T04:19:05.307Z,18.08
2022-10-13T04:21:34.709Z,17.38
2022-10-13T04:24:03.953Z,17.95
2022-10-13T04:26:34.326Z,19.38
2022-10-13T04:29:08.420Z,18.25
2022-10-13T04:31:35.985Z,17.67
2022-10-13T04:34:03.211Z,18.83
2022-10-13T04:36:30.547Z,18.35
2022-10-13T04:38:57.710Z,18.58
2022-10-13T04:41:25.763Z,18.40
2022-10-13T04:43:54.129Z,18.92
2022-10-13T04:46:26.648Z,19.30
2022-10-13T04:48:55.488Z,19.08
2022-10-13T04:51:26.388Z,18.52
2022-10-13T04:54:01.603Z,19.33
2022-10-13T04:56:29.656Z,19.13
2022-10-13T04:59:02.397Z,18.45
2022-10-13T05:01:29.422Z,18.73
2022-10-13T05:04:01.457Z,19.35
2022-10-13T05:06:34.610Z,19.92
2022-10-13T05:09:01.924Z,18.92
2022-10-13T05:11:29.923Z,18.67
2022-10-13T05:13:57.478Z,19.45
2022-10-13T05:16:25.099Z,19.75
2022-10-13T05:18:54.746Z,18.60
2022-10-13T05:21:28.536Z,18.27
2022-10-13T05:23:57.427Z,17.98
2022-10-13T05:26:29.053Z,18.70
2022-10-13T05:28:57.960Z,18.10
2022-10-13T05:31:29.085Z,18.17
2022-10-13T05:33:57.315Z,18.02
2022-10-13T05:36:31.243Z,18.52
2022-10-13T05:39:04.566Z,18.55
2022-10-13T05:41:31.999Z,18.52
2022-10-13T05:44:03.314Z,18.95
2022-10-13T05:46:30.497Z,19.10
2022-10-13T05:48:58.161Z,18.23
2022-10-13T05:51:45.314Z,19.52
2022-10-13T05:54:25.422Z,18.40
2022-10-13T05:57:01.480Z,18.02
2022-10-13T05:59:33.036Z,18.40
2022-10-13T06:02:02.297Z,18.83
2022-10-13T06:04:37.353Z,19.02
2022-10-13T06:07:04.544Z,17.60
2022-10-13T06:09:37.965Z,18.40
2022-10-13T06:12:06.821Z,18.77
2022-10-13T06:14:34.289Z,19.85
2022-10-13T06:17:07.076Z,19.67
2022-10-13T06:19:34.151Z,18.98
2022-10-13T06:22:09.026Z,19.27
2022-10-13T06:24:36.132Z,19.50
2022-10-13T06:27:04.614Z,19.30
2022-10-13T06:29:33.351Z,19.05
2022-10-13T06:32:00.357Z,17.95
2022-10-13T06:34:27.590Z,19.10
2022-10-13T06:36:54.703Z,17.83
2022-10-13T06:39:21.800Z,18.40
2022-10-13T06:41:50.409Z,18.80
2022-10-13T06:44:17.554Z,18.45
2022-10-13T06:46:44.803Z,18.55
2022-10-13T06:49:11.813Z,18.92
2022-10-13T06:51:38.886Z,18.50
2022-10-13T06:54:05.959Z,18.70
2022-10-13T06:56:33.729Z,18.05
2022-10-13T06:59:05.587Z,19.08
2022-10-13T07:01:39.211Z,18.33
2022-10-13T07:04:10.636Z,17.13
2022-10-13T07:06:37.576Z,18.17
2022-10-13T07:09:08.666Z,17.77
2022-10-13T07:11:35.965Z,18.33
2022-10-13T07:14:03.263Z,18.80
2022-10-13T07:16:32.208Z,18.45
2022-10-13T07:19:03.756Z,18.48
2022-10-13T07:21:31.086Z,18.77
2022-10-13T07:23:59.098Z,18.60
2022-10-13T07:26:27.767Z,18.27
2022-10-13T07:28:55.004Z,19.02
2022-10-13T07:31:22.174Z,18.98
2022-10-13T07:33:51.549Z,19.02
2022-10-13T07:36:19.464Z,18.95
2022-10-13T07:38:47.206Z,19.23
2022-10-13T07:41:14.842Z,18.95
2022-10-13T07:43:42.221Z,19.00
2022-10-13T07:46:12.870Z,18.90
2022-10-13T07:48:40.226Z,19.90
2022-10-13T07:51:12.876Z,18.63
2022-10-13T07:53:42.367Z,19.42
2022-10-13T07:56:12.028Z,19.17
2022-10-13T07:58:41.928Z,18.42
2022-10-13T08:01:09.830Z,18.90
2022-10-13T08:03:42.916Z,18.23
2022-10-13T08:06:17.059Z,19.77
2022-10-13T08:08:44.133Z,18.98
2022-10-13T08:11:16.715Z,19.10
2022-10-13T08:13:51.915Z,18.80
2022-10-13T08:16:22.784Z,19.50
2022-10-13T08:18:50.562Z,19.15
2022-10-13T08:24:09.636Z,17.95
2022-10-13T08:26:36.629Z,18.75
2022-10-13T08:31:53.678Z,18.77
2022-10-13T08:34:23.363Z,18.50
2022-10-13T08:36:53.493Z,18.25
2022-10-13T08:39:22.603Z,18.10
2022-10-13T08:41:50.367Z,17.83
2022-10-13T08:47:35.051Z,17.52
2022-10-13T08:50:14.092Z,18.10
2022-10-13T08:52:52.379Z,18.15
2022-10-13T08:55:37.371Z,18.67
2022-10-13T08:58:17.132Z,18.52
2022-10-13T09:00:44.408Z,18.15
2022-10-13T09:03:27.224Z,18.10
2022-10-13T09:06:10.408Z,18.25
2022-10-13T09:09:08.924Z,17.88
2022-10-13T09:11:43.363Z,18.48
2022-10-13T09:14:19.603Z,18.92
2022-10-13T09:16:47.021Z,18.05
2022-10-13T09:19:28.758Z,19.25
2022-10-13T09:22:27.239Z,20.48
2022-10-13T09:25:17.403Z,20.05
2022-10-13T09:27:54.899Z,20.98
2022-10-13T09:30:34.535Z,19.52
2022-10-13T09:33:09.622Z,19.67
2022-10-13T09:35:43.112Z,19.05
2022-10-13T09:38:22.782Z,19.00
2022-10-13T09:41:17.223Z,19.95
2022-10-13T09:44:00.940Z,19.02
2022-10-13T09:46:36.912Z,18.90
2022-10-13T09:51:41.123Z,19.00
2022-10-13T09:54:39.093Z,18.80
2022-10-13T09:57:40.086Z,18.27
2022-10-13T10:00:25.107Z,18.63
2022-10-13T10:03:16.606Z,18.70
2022-10-13T10:05:55.657Z,18.63
2022-10-13T10:09:05.854Z,18.27
2022-10-13T10:11:44.335Z,18.23
2022-10-13T10:14:40.421Z,17.92
2022-10-13T10:18:02.309Z,18.50
2022-10-13T10:20:37.982Z,19.02
2022-10-13T10:23:23.121Z,18.98
2022-10-13T10:26:01.510Z,19.30
2022-10-13T10:28:46.821Z,19.58
2022-10-13T10:31:48.723Z,20.48
2022-10-13T10:34:24.407Z,20.55
2022-10-13T10:37:21.238Z,20.80
2022-10-13T10:40:10.554Z,20.75
2022-10-13T10:42:52.141Z,21.10
2022-10-13T10:45:28.928Z,21.33
2022-10-13T10:48:08.066Z,22.00
2022-10-13T10:50:35.656Z,22.27
2022-10-13T10:53:36.046Z,22.08
2022-10-13T10:56:21.875Z,23.27
2022-10-13T10:59:08.193Z,22.05
2022-10-13T11:01:55.064Z,22.48
2022-10-13T11:04:33.436Z,22.58
2022-10-13T11:07:00.597Z,21.40
2022-10-13T11:09:42.703Z,22.63
2022-10-13T11:12:22.184Z,22.38
2022-10-13T11:15:14.438Z,23.48
2022-10-13T11:17:41.935Z,24.10
2022-10-13T11:20:20.756Z,24.15
2022-10-13T11:22:59.667Z,23.48
2022-10-13T11:26:34.163Z,23.30
2022-10-13T11:29:01.217Z,24.02
2022-10-13T11:31:35.257Z,22.40
2022-10-13T11:34:03.816Z,23.73
2022-10-13T11:36:49.106Z,23.15
2022-10-13T11:39:26.509Z,24.45
2022-10-13T11:42:12.354Z,24.10
2022-10-13T11:44:57.163Z,23.60
2022-10-13T11:48:07.567Z,24.98
2022-10-13T11:51:16.567Z,25.27
2022-10-13T11:54:13.627Z,25.20
2022-10-13T11:56:53.937Z,26.70
2022-10-13T11:59:25.580Z,26.13
2022-10-13T12:02:18.972Z,25.77
2022-10-13T12:05:19.534Z,25.67
2022-10-13T12:07:49.504Z,27.02
2022-10-13T12:10:33.549Z,26.40
2022-10-13T12:13:01.652Z,27.05
2022-10-13T12:15:37.750Z,27.65
2022-10-13T12:18:26.912Z,26.98
2022-10-13T12:20:59.136Z,27.25
2022-10-13T12:23:30.015Z,27.80
2022-10-13T12:25:58.603Z,28.67
2022-10-13T12:28:52.161Z,29.00
2022-10-13T12:31:59.533Z,28.40
2022-10-13T12:37:39.691Z,29.25
2022-10-13T12:40:13.836Z,29.73
2022-10-13T12:42:42.712Z,27.65
2022-10-13T12:45:20.238Z,27.85
2022-10-13T12:47:52.027Z,29.08
2022-10-13T12:50:24.902Z,29.27
2022-10-13T12:53:07.966Z,28.58
2022-10-13T12:55:38.172Z,28.38
2022-10-13T12:58:05.261Z,27.83
2022-10-13T13:00:32.442Z,26.75
2022-10-13T13:03:02.396Z,28.52
2022-10-13T13:05:34.505Z,24.70
2022-10-13T13:08:22.402Z,24.38
2022-10-13T13:11:01.213Z,24.65
2022-10-13T13:13:29.267Z,23.65
2022-10-13T13:16:18.199Z,22.73
2022-10-13T13:18:48.469Z,22.73
2022-10-13T13:21:19.105Z,22.10
2022-10-13T13:23:52.827Z,21.17
2022-10-13T13:26:24.480Z,20.77
2022-10-13T13:28:55.372Z,20.45
2022-10-13T13:31:25.202Z,19.60
2022-10-13T13:33:53.166Z,19.83
2022-10-13T13:36:25.505Z,19.25
2022-10-13T13:38:54.137Z,18.92
2022-10-13T13:41:22.097Z,17.95
2022-10-13T13:43:49.463Z,17.52
2022-10-13T13:46:21.631Z,16.42
2022-10-13T13:48:49.329Z,17.55
2022-10-13T13:51:17.024Z,16.48
2022-10-13T13:53:45.925Z,16.95
2022-10-13T13:56:19.124Z,16.77
2022-10-13T13:58:46.616Z,17.33
2022-10-13T14:01:14.617Z,15.88
2022-10-13T14:03:42.206Z,15.60
2022-10-13T14:06:19.806Z,17.27
2022-10-13T14:08:47.466Z,17.38
2022-10-13T14:11:14.488Z,17.05
2022-10-13T14:13:41.563Z,18.55
2022-10-13T14:16:17.287Z,17.85
2022-10-13T14:18:44.363Z,19.23
2022-10-13T14:21:12.123Z,18.95
2022-10-13T14:23:40.337Z,19.10
2022-10-13T14:26:09.514Z,18.83
2022-10-13T14:28:36.509Z,18.35
2022-10-13T14:31:07.615Z,18.95
2022-10-13T14:33:35.892Z,19.83
2022-10-13T14:36:06.624Z,18.42
2022-10-13T14:38:34.575Z,19.90
2022-10-13T14:41:05.996Z,18.48
2022-10-13T14:43:33.705Z,18.27
2022-10-13T14:46:05.792Z,16.83
2022-10-13T14:48:34.814Z,16.73
2022-10-13T14:51:10.014Z,15.50
2022-10-13T14:53:42.971Z,15.18
2022-10-13T14:56:32.306Z,14.50
2022-10-13T14:59:05.539Z,15.30
2022-10-13T15:01:43.833Z,15.52
2022-10-13T15:04:11.352Z,13.80
2022-10-13T15:06:39.367Z,14.13
2022-10-13T15:11:40.668Z,11.13
2022-10-13T15:14:09.568Z,11.25
2022-10-13T15:16:37.807Z,9.95
2022-10-13T15:19:05.166Z,11.15
2022-10-13T15:21:32.285Z,10.65
2022-10-13T15:23:59.450Z,10.90
2022-10-13T15:26:26.385Z,9.88
2022-10-13T15:28:54.046Z,8.90
2022-10-13T15:31:22.700Z,9.52
2022-10-13T15:33:53.203Z,9.50
2022-10-13T15:36:22.233Z,9.65
2022-10-13T15:38:49.553Z,10.20
2022-10-13T15:41:16.944Z,10.13
2022-10-13T15:43:43.971Z,10.38
2022-10-13T15:46:21.189Z,10.63
2022-10-13T15:48:49.532Z,10.57
2022-10-13T15:51:19.578Z,9.90
2022-10-13T15:53:47.862Z,10.90
2022-10-13T15:56:15.620Z,10.93
2022-10-13T15:58:42.676Z,11.40
2022-10-13T16:01:14.143Z,11.05
2022-10-13T16:03:41.853Z,11.23
2022-10-13T16:06:11.949Z,10.85
2022-10-13T16:08:40.751Z,12.07
2022-10-13T16:11:16.517Z,12.10
2022-10-13T16:13:51.908Z,10.70
2022-10-13T16:16:19.434Z,11.48
2022-10-13T16:18:46.590Z,11.40
2022-10-13T16:21:23.394Z,11.20
2022-10-13T16:23:50.655Z,11.13
2022-10-13T16:26:18.341Z,11.18
2022-10-13T16:28:46.489Z,11.23
2022-10-13T16:31:16.253Z,10.88
2022-10-13T16:33:44.980Z,11.80
2022-10-13T16:36:18.026Z,11.35
2022-10-13T16:38:46.222Z,11.32
2022-10-13T16:41:16.882Z,10.80
2022-10-13T16:43:44.999Z,10.85
2022-10-13T16:46:15.187Z,10.43
2022-10-13T16:48:44.028Z,11.00
2022-10-13T16:51:16.126Z,11.55
2022-10-13T16:53:47.719Z,11.63
2022-10-13T16:56:14.761Z,12.30
2022-10-13T16:58:45.244Z,11.52
2022-10-13T17:01:13.397Z,11.68
2022-10-13T17:03:43.750Z,12.13
2022-10-13T17:06:13.315Z,11.27
2022-10-13T17:08:42.195Z,11.15
2022-10-13T17:11:11.192Z,10.32
2022-10-13T17:13:38.217Z,9.48
2022-10-13T17:16:05.605Z,9.32
2022-10-13T17:18:32.845Z,8.35
2022-10-13T17:21:04.020Z,9.20
2022-10-13T17:23:32.033Z,9.35
2022-10-13T17:26:08.424Z,8.75
2022-10-13T17:28:36.772Z,9.15
2022-10-13T17:31:16.983Z,8.80
2022-10-13T17:33:44.953Z,9.02
2022-10-13T17:36:31.675Z,9.13
2022-10-13T17:39:09.388Z,9.73
2022-10-13T17:41:40.509Z,9.98
2022-10-13T17:44:07.570Z,10.05
2022-10-13T17:46:37.810Z,9.52
2022-10-13T17:49:07.713Z,9.90
2022-10-13T17:51:34.780Z,10.57
2022-10-13T17:54:01.995Z,10.20
2022-10-13T17:56:29.419Z,11.65
2022-10-13T17:58:56.856Z,11.10
2022-10-13T18:01:27.610Z,11.30
2022-10-13T18:04:04.423Z,11.95
2022-10-13T18:06:38.486Z,12.05
2022-10-13T18:09:13.423Z,12.50
2022-10-13T18:11:44.390Z,13.30
2022-10-13T18:14:21.332Z,13.20
2022-10-13T18:16:52.581Z,13.18
2022-10-13T18:19:21.188Z,13.20
2022-10-13T18:21:48.777Z,14.38
2022-10-13T18:24:16.186Z,14.40
2022-10-13T18:26:43.214Z,14.45
2022-10-13T18:29:12.016Z,14.25
2022-10-13T18:31:41.333Z,14.25
2022-10-13T18:34:13.613Z,15.98
2022-10-13T18:36:47.404Z,15.02
2022-10-13T18:39:28.006Z,15.80
2022-10-13T18:41:56.972Z,15.38
2022-10-13T18:44:34.381Z,15.23
2022-10-13T18:47:01.542Z,14.18
2022-10-13T18:49:31.563Z,14.68
2022-10-13T18:52:00.813Z,14.50
2022-10-13T18:54:29.124Z,13.88
2022-10-13T18:56:57.034Z,18.60
2022-10-13T18:59:24.448Z,16.83
2022-10-13T19:01:51.823Z,18.00
2022-10-13T19:04:19.012Z,19.48
2022-10-13T19:06:46.511Z,23.85
2022-10-13T19:09:17.194Z,21.55
2022-10-13T19:11:44.373Z,21.98
2022-10-13T19:14:13.864Z,23.02
2022-10-13T19:16:43.901Z,22.25
2022-10-13T19:19:11.614Z,21.65
2022-10-13T19:21:39.373Z,22.58
2022-10-13T19:24:08.734Z,23.30
2022-10-13T19:26:37.390Z,23.48
2022-10-13T19:29:11.362Z,23.33
2022-10-13T19:31:40.058Z,22.63
2022-10-13T19:34:07.976Z,23.48
2022-10-13T19:36:44.136Z,23.27
2022-10-13T19:39:16.683Z,24.45
2022-10-13T19:41:45.975Z,25.95
2022-10-13T19:44:14.163Z,25.80
2022-10-13T19:46:43.883Z,24.15
2022-10-13T19:49:12.680Z,25.95
2022-10-13T19:51:45.635Z,27.83
2022-10-13T19:54:13.897Z,25.63
2022-10-13T19:56:47.872Z,26.00
2022-10-13T19:59:15.867Z,25.40
2022-10-13T20:01:43.652Z,25.52
2022-10-13T20:04:15.870Z,25.83
2022-10-13T20:06:44.358Z,24.63
2022-10-13T20:09:12.030Z,24.92
2022-10-13T20:11:39.008Z,24.20
2022-10-13T20:14:06.095Z,24.80
2022-10-13T20:16:33.252Z,25.23
2022-10-13T20:19:01.204Z,24.90
2022-10-13T20:21:29.485Z,22.95
2022-10-13T20:23:57.296Z,23.92
2022-10-13T20:26:25.118Z,26.88
2022-10-13T20:28:53.269Z,26.23
2022-10-13T20:31:22.440Z,26.58
2022-10-13T20:33:57.758Z,26.60
2022-10-13T20:36:33.659Z,27.05
2022-10-13T20:39:04.764Z,27.33
2022-10-13T20:41:33.573Z,28.05
2022-10-13T20:44:02.096Z,27.42
2022-10-13T20:46:32.753Z,27.30
2022-10-13T20:49:15.296Z,27.63
2022-10-13T20:51:43.206Z,26.33
2022-10-13T20:54:12.714Z,26.70
2022-10-13T20:56:40.382Z,25.95
2022-10-13T20:59:11.019Z,26.30
2022-10-13T21:01:38.697Z,27.13
2022-10-13T21:04:06.422Z,27.35
2022-10-13T21:06:35.660Z,28.08
2022-10-13T21:09:04.517Z,28.50
2022-10-13T21:11:31.542Z,28.08
2022-10-13T21:13:58.762Z,32.28
2022-10-13T21:16:28.405Z,28.95
2022-10-13T21:18:57.478Z,28.17
2022-10-13T21:21:28.309Z,28.77
2022-10-13T21:23:59.110Z,27.83
2022-10-13T21:26:28.859Z,26.88
2022-10-13T21:28:56.709Z,27.48
2022-10-13T21:31:25.521Z,26.05
2022-10-13T21:33:53.133Z,26.10
2022-10-13T21:36:29.972Z,25.50
2022-10-13T21:39:00.461Z,24.75
2022-10-13T21:41:28.795Z,26.95
2022-10-13T21:43:56.197Z,28.35
2022-10-13T21:46:34.690Z,26.45
2022-10-13T21:49:05.160Z,28.52
2022-10-13T21:51:37.887Z,30.55
2022-10-13T21:54:09.618Z,30.40
2022-10-13T21:56:38.124Z,33.97
2022-10-13T21:59:06.323Z,32.72
2022-10-13T22:01:34.118Z,34.70
2022-10-13T22:04:03.346Z,34.30
2022-10-13T22:06:32.305Z,32.80
2022-10-13T22:09:04.056Z,33.58
2022-10-13T22:11:33.954Z,34.47
2022-10-13T22:14:06.840Z,33.80
2022-10-13T22:16:38.425Z,36.63
2022-10-13T22:19:06.732Z,33.40
2022-10-13T22:21:42.593Z,33.42
2022-10-13T22:24:13.642Z,32.65
2022-10-13T22:26:42.868Z,33.63
2022-10-13T22:29:12.760Z,30.45
2022-10-13T22:31:41.010Z,32.25
2022-10-13T22:34:10.993Z,35.28
2022-10-13T22:36:41.080Z,32.90
2022-10-13T22:39:10.781Z,34.08
2022-10-13T22:41:37.722Z,36.92
2022-10-13T22:44:04.940Z,35.42
2022-10-13T22:46:35.325Z,37.05
2022-10-13T22:49:03.621Z,35.25
2022-10-13T22:51:33.266Z,33.20
2022-10-13T22:54:00.805Z,34.53
2022-10-13T22:56:31.027Z,33.67
2022-10-13T22:59:05.247Z,34.15
2022-10-13T23:01:32.520Z,33.35
2022-10-13T23:04:00.127Z,34.25
2022-10-13T23:06:30.713Z,33.67
2022-10-13T23:09:01.816Z,33.65
2022-10-13T23:11:28.985Z,33.38
2022-10-13T23:13:57.401Z,32.08
2022-10-13T23:16:26.248Z,33.20
2022-10-13T23:18:53.812Z,31.17
2022-10-13T23:21:27.814Z,32.30
2022-10-13T23:24:03.577Z,30.58
2022-10-13T23:26:31.644Z,32.03
2022-10-13T23:28:59.073Z,31.83
2022-10-13T23:31:27.637Z,32.78
2022-10-13T23:33:54.933Z,30.40
2022-10-13T23:36:25.752Z,31.05
2022-10-13T23:39:05.100Z,31.63
2022-10-13T23:41:32.635Z,30.00
2022-10-13T23:43:59.710Z,30.52
2022-10-13T23:46:26.786Z,29.48
2022-10-13T23:48:53.986Z,30.52
2022-10-13T23:51:24.131Z,29.67
2022-10-13T23:53:51.569Z,27.63
2022-10-13T23:56:19.835Z,28.02
2022-10-13T23:58:47.522Z,26.42
